createdAt,value
2018-09-25T00:02:02.702Z,100338.09
2018-09-25T00:04:35.587Z,100341.16
2018-09-25T00:07:08.600Z,100347.62
2018-09-25T00:09:41.476Z,100348.92
2018-09-25T00:12:14.347Z,100355.05
2018-09-25T00:14:47.081Z,100353.72
2018-09-25T00:17:21.170Z,100357.20
2018-09-25T00:22:45.760Z,100362.72
2018-09-25T00:25:19.146Z,100363.11
2018-09-25T00:27:54.885Z,100367.45
2018-09-25T00:30:27.852Z,100366.11
2018-09-25T00:33:00.923Z,100368.91
2018-09-25T00:35:34.290Z,100364.33
2018-09-25T00:38:07.552Z,100365.87
2018-09-25T00:40:40.516Z,100378.25
2018-09-25T00:43:13.581Z,100374.30
2018-09-25T00:45:48.163Z,100376.06
2018-09-25T00:48:21.111Z,100372.19
2018-09-25T00:50:56.815Z,100372.05
2018-09-25T00:53:29.668Z,100374.94
2018-09-25T00:56:03.922Z,100375.53
2018-09-25T00:58:37.095Z,100372.81
2018-09-25T01:01:10.064Z,100370.94
2018-09-25T01:03:43.124Z,100374.84
2018-09-25T01:06:15.963Z,100366.57
2018-09-25T01:08:48.844Z,100366.22
2018-09-25T01:11:21.831Z,100363.61
2018-09-25T01:13:55.985Z,100375.34
2018-09-25T01:16:28.891Z,100368.41
2018-09-25T01:19:02.335Z,100373.66
2018-09-25T01:21:35.587Z,100372.04
2018-09-25T01:24:08.803Z,100376.44
2018-09-25T01:26:42.294Z,100378.20
2018-09-25T01:29:16.413Z,100376.44
2018-09-25T01:31:49.608Z,100376.80
2018-09-25T01:34:22.445Z,100377.33
2018-09-25T01:36:55.453Z,100380.81
2018-09-25T01:39:28.337Z,100374.72
2018-09-25T01:42:01.410Z,100374.57
2018-09-25T01:44:34.351Z,100376.33
2018-09-25T01:47:07.453Z,100380.94
2018-09-25T01:49:40.326Z,100383.16
2018-09-25T01:52:13.573Z,100390.88
2018-09-25T01:54:46.606Z,100385.55
2018-09-25T01:57:19.692Z,100382.41
2018-09-25T01:59:52.588Z,100380.64
2018-09-25T02:02:25.396Z,100380.11
2018-09-25T02:04:58.261Z,100386.09
2018-09-25T02:07:31.403Z,100380.38
2018-09-25T02:10:05.104Z,100383.75
2018-09-25T02:12:38.502Z,100389.69
2018-09-25T02:15:11.805Z,100392.22
2018-09-25T02:17:44.838Z,100397.35
2018-09-25T02:20:17.738Z,100414.28
2018-09-25T02:22:51.667Z,100418.99
2018-09-25T02:25:24.553Z,100413.13
2018-09-25T02:27:57.430Z,100412.16
2018-09-25T02:30:30.412Z,100413.84
2018-09-25T02:33:03.490Z,100418.98
2018-09-25T02:35:36.409Z,100422.25
2018-09-25T02:38:09.495Z,100421.30
2018-09-25T02:40:42.400Z,100427.34
2018-09-25T02:43:15.479Z,100426.42
2018-09-25T02:45:48.651Z,100436.04
2018-09-25T02:48:21.611Z,100438.22
2018-09-25T02:50:54.487Z,100434.19
2018-09-25T02:53:27.468Z,100435.91
2018-09-25T02:56:00.385Z,100434.19
2018-09-25T02:58:33.448Z,100435.11
2018-09-25T03:01:06.494Z,100436.87
2018-09-25T03:03:39.576Z,100436.00
2018-09-25T03:06:12.464Z,100436.45
2018-09-25T03:08:45.523Z,100433.90
2018-09-25T03:11:18.407Z,100435.62
2018-09-25T03:13:51.345Z,100445.69
2018-09-25T03:16:24.172Z,100437.80
2018-09-25T03:18:57.079Z,100439.19
2018-09-25T03:21:30.973Z,100443.09
2018-09-25T03:24:04.754Z,100449.59
2018-09-25T03:26:37.704Z,100448.34
2018-09-25T03:29:11.437Z,100457.16
2018-09-25T03:31:44.232Z,100451.53
2018-09-25T03:34:17.163Z,100451.91
2018-09-25T03:36:50.138Z,100452.38
2018-09-25T03:39:22.998Z,100456.28
2018-09-25T03:41:55.912Z,100459.77
2018-09-25T03:44:28.991Z,100455.18
2018-09-25T03:47:01.791Z,100455.42
2018-09-25T03:49:34.771Z,100460.37
2018-09-25T03:52:07.715Z,100460.53
2018-09-25T03:54:40.730Z,100463.38
2018-09-25T03:57:13.768Z,100471.86
2018-09-25T03:59:46.807Z,100469.82
2018-09-25T04:02:19.795Z,100468.52
2018-09-25T04:04:52.764Z,100479.41
2018-09-25T04:07:25.662Z,100482.44
2018-09-25T04:09:58.605Z,100480.25
2018-09-25T04:12:31.619Z,100482.94
2018-09-25T04:15:04.835Z,100483.52
2018-09-25T04:17:37.746Z,100490.95
2018-09-25T04:20:10.676Z,100486.20
2018-09-25T04:22:43.731Z,100490.15
2018-09-25T04:25:16.593Z,100494.94
2018-09-25T04:27:49.431Z,100488.42
2018-09-25T04:30:22.391Z,100494.21
2018-09-25T04:32:55.734Z,100493.75
2018-09-25T04:35:28.602Z,100497.66
2018-09-25T04:38:01.848Z,100502.49
2018-09-25T04:40:34.773Z,100505.98
2018-09-25T04:43:07.916Z,100504.67
2018-09-25T04:45:40.880Z,100505.60
2018-09-25T04:48:14.156Z,100510.31
2018-09-25T04:50:47.398Z,100505.95
2018-09-25T04:53:20.483Z,100512.72
2018-09-25T04:55:53.494Z,100515.14
2018-09-25T04:58:26.627Z,100515.85
2018-09-25T05:01:00.176Z,100512.71
2018-09-25T05:03:33.465Z,100517.84
2018-09-25T05:06:14.693Z,100519.52
2018-09-25T05:08:47.745Z,100522.89
2018-09-25T05:11:28.140Z,100526.80
2018-09-25T05:14:03.575Z,100529.56
2018-09-25T05:16:38.768Z,100528.81
2018-09-25T05:19:13.314Z,100528.17
2018-09-25T05:21:46.498Z,100534.92
2018-09-25T05:24:23.727Z,100533.90
2018-09-25T05:26:57.678Z,100538.05
2018-09-25T05:29:33.164Z,100542.30
2018-09-25T05:32:06.810Z,100540.27
2018-09-25T05:34:42.172Z,100546.10
2018-09-25T05:37:17.013Z,100546.64
2018-09-25T05:39:51.257Z,100549.02
2018-09-25T05:42:24.219Z,100548.81
2018-09-25T05:44:58.620Z,100551.57
2018-09-25T05:47:32.751Z,100551.22
2018-09-25T05:50:10.798Z,100558.13
2018-09-25T05:52:47.645Z,100555.45
2018-09-25T05:55:22.237Z,100558.48
2018-09-25T05:57:55.392Z,100566.80
2018-09-25T06:00:29.760Z,100579.20
2018-09-25T06:03:08.146Z,100574.20
2018-09-25T06:05:44.422Z,100578.36
2018-09-25T06:11:14.091Z,100585.64
2018-09-25T06:13:47.854Z,100583.53
2018-09-25T06:16:38.464Z,100591.92
2018-09-25T06:19:13.155Z,100594.30
2018-09-25T06:21:49.893Z,100588.82
2018-09-25T06:24:22.938Z,100586.67
2018-09-25T06:26:55.889Z,100590.27
2018-09-25T06:29:28.776Z,100600.82
2018-09-25T06:32:02.802Z,100598.84
2018-09-25T06:34:46.028Z,100599.99
2018-09-25T06:37:20.673Z,100595.17
2018-09-25T06:39:55.996Z,100592.30
2018-09-25T06:42:32.564Z,100596.17
2018-09-25T06:45:07.313Z,100601.69
2018-09-25T06:47:40.377Z,100605.19
2018-09-25T06:50:14.556Z,100600.66
2018-09-25T06:53:02.845Z,100601.77
2018-09-25T06:55:44.151Z,100608.00
2018-09-25T06:58:17.657Z,100607.16
2018-09-25T07:00:50.705Z,100614.55
2018-09-25T07:03:25.891Z,100613.81
2018-09-25T07:05:59.207Z,100617.06
2018-09-25T07:08:32.200Z,100617.94
2018-09-25T07:11:05.511Z,100626.05
2018-09-25T07:13:39.004Z,100621.66
2018-09-25T07:16:12.447Z,100626.19
2018-09-25T07:18:45.656Z,100624.56
2018-09-25T07:21:18.943Z,100621.06
2018-09-25T07:23:51.961Z,100617.73
2018-09-25T07:26:24.814Z,100617.20
2018-09-25T07:28:58.925Z,100625.89
2018-09-25T07:31:32.098Z,100628.02
2018-09-25T07:34:08.260Z,100629.89
2018-09-25T07:36:42.833Z,100622.63
2018-09-25T07:39:23.292Z,100628.70
2018-09-25T07:41:57.814Z,100626.14
2018-09-25T07:44:31.051Z,100630.13
2018-09-25T07:47:04.373Z,100628.62
2018-09-25T07:49:37.771Z,100624.77
2018-09-25T07:52:11.131Z,100623.97
2018-09-25T07:54:56.038Z,100630.48
2018-09-25T07:57:32.549Z,100641.57
2018-09-25T08:00:07.182Z,100639.87
2018-09-25T08:02:41.676Z,100642.45
2018-09-25T08:05:17.638Z,100649.54
2018-09-25T08:07:52.842Z,100645.28
2018-09-25T08:10:27.857Z,100644.80
2018-09-25T08:13:03.322Z,100642.20
2018-09-25T08:15:37.803Z,100635.13
2018-09-25T08:18:11.958Z,100645.70
2018-09-25T08:20:48.984Z,100650.48
2018-09-25T08:23:24.135Z,100650.41
2018-09-25T08:26:02.313Z,100654.41
2018-09-25T08:28:36.788Z,100653.02
2018-09-25T08:31:15.358Z,100650.32
2018-09-25T08:33:54.142Z,100660.88
2018-09-25T08:36:28.343Z,100669.80
2018-09-25T08:39:01.715Z,100666.16
2018-09-25T08:41:35.115Z,100668.83
2018-09-25T08:44:10.117Z,100677.32
2018-09-25T08:46:43.970Z,100682.94
2018-09-25T08:49:17.433Z,100677.13
2018-09-25T08:51:53.973Z,100675.41
2018-09-25T08:54:27.295Z,100677.81
2018-09-25T08:57:01.426Z,100682.75
2018-09-25T08:59:34.741Z,100680.44
2018-09-25T09:02:10.962Z,100684.45
2018-09-25T09:04:47.495Z,100684.91
2018-09-25T09:07:21.224Z,100684.73
2018-09-25T09:09:54.587Z,100678.55
2018-09-25T09:12:27.587Z,100677.57
2018-09-25T09:15:01.863Z,100680.43
2018-09-25T09:17:34.811Z,100675.03
2018-09-25T09:20:07.755Z,100673.80
2018-09-25T09:22:45.324Z,100677.10
2018-09-25T09:25:18.775Z,100673.93
2018-09-25T09:27:54.413Z,100670.89
2018-09-25T09:30:27.910Z,100673.24
2018-09-25T09:33:07.207Z,100672.98
2018-09-25T09:35:42.320Z,100681.47
2018-09-25T09:38:15.399Z,100668.62
2018-09-25T09:40:51.374Z,100671.91
2018-09-25T09:43:27.094Z,100676.38
2018-09-25T09:46:00.146Z,100664.67
2018-09-25T09:48:35.551Z,100674.94
2018-09-25T09:51:15.975Z,100678.92
2018-09-25T09:53:50.837Z,100687.63
2018-09-25T09:56:24.329Z,100687.13
2018-09-25T09:58:59.905Z,100686.73
2018-09-25T10:01:45.071Z,100687.23
2018-09-25T10:04:19.998Z,100688.44
2018-09-25T10:06:53.069Z,100683.03
2018-09-25T10:09:26.377Z,100693.04
2018-09-25T10:11:59.786Z,100691.02
2018-09-25T10:14:32.940Z,100684.81
2018-09-25T10:17:06.187Z,100691.94
2018-09-25T10:19:39.464Z,100696.40
2018-09-25T10:22:12.718Z,100696.23
2018-09-25T10:24:47.864Z,100685.88
2018-09-25T10:27:23.358Z,100676.27
2018-09-25T10:30:00.590Z,100684.86
2018-09-25T10:35:13.098Z,100691.95
2018-09-25T10:37:46.365Z,100694.83
2018-09-25T10:40:21.860Z,100686.89
2018-09-25T10:42:55.268Z,100682.32
2018-09-25T10:45:28.403Z,100684.55
2018-09-25T10:48:01.730Z,100682.06
2018-09-25T10:50:35.721Z,100676.28
2018-09-25T10:53:09.311Z,100680.00
2018-09-25T10:55:42.858Z,100667.45
2018-09-25T10:58:15.971Z,100673.78
2018-09-25T11:00:49.205Z,100679.09
2018-09-25T11:03:29.524Z,100688.44
2018-09-25T11:06:03.265Z,100687.88
2018-09-25T11:08:38.265Z,100680.59
2018-09-25T11:11:17.121Z,100686.66
2018-09-25T11:13:50.373Z,100681.45
2018-09-25T11:16:24.176Z,100682.04
2018-09-25T11:19:01.001Z,100686.73
2018-09-25T11:21:59.326Z,100683.63
2018-09-25T11:24:33.944Z,100682.68
2018-09-25T11:27:08.479Z,100682.97
2018-09-25T11:29:47.717Z,100684.79
2018-09-25T11:32:26.899Z,100687.20
2018-09-25T11:35:00.076Z,100679.58
2018-09-25T11:37:33.196Z,100678.19
2018-09-25T11:40:07.095Z,100685.95
2018-09-25T11:42:42.252Z,100695.29
2018-09-25T11:45:17.598Z,100698.95
2018-09-25T11:47:52.645Z,100699.41
2018-09-25T11:50:29.576Z,100682.16
2018-09-25T11:53:02.745Z,100687.98
2018-09-25T11:55:35.680Z,100686.90
2018-09-25T11:58:09.465Z,100677.22
2018-09-25T12:00:47.723Z,100679.83
2018-09-25T12:03:25.909Z,100678.34
2018-09-25T12:05:59.464Z,100675.50
2018-09-25T12:08:32.813Z,100682.50
2018-09-25T12:11:06.011Z,100684.73
2018-09-25T12:13:42.298Z,100685.70
2018-09-25T12:16:15.871Z,100681.48
2018-09-25T12:21:32.022Z,100686.84
2018-09-25T12:24:06.676Z,100680.95
2018-09-25T12:26:44.195Z,100676.97
2018-09-25T12:29:20.738Z,100671.61
2018-09-25T12:31:54.890Z,100666.53
2018-09-25T12:34:30.101Z,100662.62
2018-09-25T12:37:03.655Z,100665.64
2018-09-25T12:39:39.047Z,100667.25
2018-09-25T12:42:14.272Z,100658.14
2018-09-25T12:44:49.639Z,100644.84
2018-09-25T12:47:26.510Z,100657.58
2018-09-25T12:50:04.885Z,100656.73
2018-09-25T12:52:41.169Z,100658.34
2018-09-25T12:55:14.381Z,100657.32
2018-09-25T12:57:47.744Z,100657.37
2018-09-25T13:00:20.676Z,100662.22
2018-09-25T13:02:55.183Z,100668.89
2018-09-25T13:05:32.834Z,100667.20
2018-09-25T13:08:09.303Z,100665.41
2018-09-25T13:10:43.049Z,100665.84
2018-09-25T13:13:18.743Z,100669.33
2018-09-25T13:15:52.943Z,100670.03
2018-09-25T13:18:26.088Z,100662.15
2018-09-25T13:21:00.935Z,100656.25
2018-09-25T13:23:34.168Z,100662.50
2018-09-25T13:26:08.278Z,100660.88
2018-09-25T13:28:42.524Z,100663.16
2018-09-25T13:31:17.204Z,100660.06
2018-09-25T13:33:50.335Z,100657.92
2018-09-25T13:36:25.969Z,100663.69
2018-09-25T13:38:59.231Z,100643.02
2018-09-25T13:41:32.409Z,100644.69
2018-09-25T13:44:05.512Z,100641.61
2018-09-25T13:46:38.961Z,100639.03
2018-09-25T13:49:13.216Z,100631.09
2018-09-25T13:51:46.252Z,100616.09
2018-09-25T13:54:31.971Z,100616.56
2018-09-25T13:57:15.754Z,100626.77
2018-09-25T13:59:59.605Z,100612.63
2018-09-25T14:02:44.749Z,100614.27
2018-09-25T14:05:28.645Z,100613.40
2018-09-25T14:08:13.466Z,100612.52
2018-09-25T14:10:58.891Z,100613.36
2018-09-25T14:13:47.511Z,100605.87
2018-09-25T14:16:32.846Z,100612.42
2018-09-25T14:19:18.481Z,100618.69
2018-09-25T14:21:51.710Z,100614.20
2018-09-25T14:24:25.057Z,100609.32
2018-09-25T14:26:58.248Z,100596.66
2018-09-25T14:29:31.425Z,100581.68
2018-09-25T14:32:04.692Z,100573.81
2018-09-25T14:34:38.058Z,100574.28
2018-09-25T14:37:11.520Z,100577.84
2018-09-25T14:39:45.085Z,100576.55
2018-09-25T14:42:18.323Z,100577.02
2018-09-25T14:44:52.323Z,100577.41
2018-09-25T14:47:25.726Z,100579.19
2018-09-25T14:50:01.605Z,100588.03
2018-09-25T14:52:34.947Z,100585.37
2018-09-25T14:55:08.419Z,100594.22
2018-09-25T14:57:41.542Z,100583.67
2018-09-25T15:00:14.582Z,100588.91
2018-09-25T15:02:48.105Z,100591.55
2018-09-25T15:05:22.363Z,100586.70
2018-09-25T15:07:55.817Z,100582.75
2018-09-25T15:10:29.870Z,100578.80
2018-09-25T15:13:05.842Z,100570.42
2018-09-25T15:15:42.905Z,100573.08
2018-09-25T15:18:18.506Z,100575.70
2018-09-25T15:20:53.701Z,100570.42
2018-09-25T15:23:26.935Z,100577.48
2018-09-25T15:26:00.707Z,100577.91
2018-09-25T15:28:33.928Z,100574.38
2018-09-25T15:31:07.692Z,100572.17
2018-09-25T15:33:55.880Z,100570.83
2018-09-25T15:36:30.844Z,100580.52
2018-09-25T15:39:05.293Z,100589.73
2018-09-25T15:41:39.602Z,100591.06
2018-09-25T15:44:14.279Z,100587.96
2018-09-25T15:46:49.670Z,100588.41
2018-09-25T15:49:22.809Z,100576.95
2018-09-25T15:51:56.545Z,100571.67
2018-09-25T15:54:37.850Z,100572.12
2018-09-25T15:57:12.087Z,100581.78
2018-09-25T15:59:45.265Z,100586.18
2018-09-25T16:02:18.675Z,100586.19
2018-09-25T16:04:52.195Z,100587.95
2018-09-25T16:07:25.304Z,100587.04
2018-09-25T16:09:58.297Z,100582.62
2018-09-25T16:12:31.622Z,100579.10
2018-09-25T16:15:04.795Z,100583.06
2018-09-25T16:17:41.370Z,100576.44
2018-09-25T16:20:15.004Z,100580.80
2018-09-25T16:22:52.739Z,100572.86
2018-09-25T16:25:28.303Z,100576.34
2018-09-25T16:28:01.547Z,100579.86
2018-09-25T16:30:36.063Z,100573.67
2018-09-25T16:33:09.204Z,100587.72
2018-09-25T16:35:42.968Z,100584.21
2018-09-25T16:38:15.998Z,100585.02
2018-09-25T16:40:49.186Z,100591.55
2018-09-25T16:43:22.242Z,100597.21
2018-09-25T16:45:56.024Z,100590.97
2018-09-25T16:48:31.821Z,100598.75
2018-09-25T16:51:05.125Z,100601.70
2018-09-25T16:53:38.486Z,100608.12
2018-09-25T16:56:11.613Z,100599.63
2018-09-25T16:58:44.735Z,100605.19
2018-09-25T17:01:18.736Z,100605.11
2018-09-25T17:03:56.071Z,100606.76
2018-09-25T17:06:30.853Z,100610.09
2018-09-25T17:09:04.332Z,100614.88
2018-09-25T17:11:39.580Z,100617.81
2018-09-25T17:14:12.772Z,100618.93
2018-09-25T17:16:45.970Z,100627.86
2018-09-25T17:19:19.543Z,100626.70
2018-09-25T17:21:53.264Z,100637.01
2018-09-25T17:24:26.781Z,100650.06
2018-09-25T17:26:59.784Z,100655.19
2018-09-25T17:29:32.876Z,100668.94
2018-09-25T17:32:07.149Z,100673.92
2018-09-25T17:34:47.643Z,100668.11
2018-09-25T17:37:21.804Z,100667.39
2018-09-25T17:39:55.171Z,100671.14
2018-09-25T17:42:28.570Z,100672.33
2018-09-25T17:45:02.063Z,100669.83
2018-09-25T17:47:36.184Z,100676.63
2018-09-25T17:50:09.925Z,100676.71
2018-09-25T17:52:43.908Z,100677.35
2018-09-25T17:55:23.652Z,100674.08
2018-09-25T17:57:58.402Z,100678.33
2018-09-25T18:00:33.448Z,100672.09
2018-09-25T18:03:06.573Z,100671.13
2018-09-25T18:05:39.955Z,100674.84
2018-09-25T18:08:14.889Z,100679.84
2018-09-25T18:10:47.964Z,100671.42
2018-09-25T18:13:21.167Z,100670.87
2018-09-25T18:15:54.371Z,100673.46
2018-09-25T18:18:27.379Z,100677.66
2018-09-25T18:21:00.372Z,100677.96
2018-09-25T18:23:33.517Z,100679.05
2018-09-25T18:26:06.545Z,100673.14
2018-09-25T18:28:43.724Z,100676.05
2018-09-25T18:31:16.666Z,100682.33
2018-09-25T18:33:49.741Z,100684.71
2018-09-25T18:36:22.942Z,100692.06
2018-09-25T18:38:55.935Z,100696.38
2018-09-25T18:41:29.167Z,100696.16
2018-09-25T18:44:02.245Z,100694.36
2018-09-25T18:46:35.758Z,100697.50
2018-09-25T18:49:09.085Z,100705.15
2018-09-25T18:51:43.256Z,100712.20
2018-09-25T18:54:16.347Z,100702.81
2018-09-25T18:56:50.575Z,100702.22
2018-09-25T18:59:24.399Z,100694.55
2018-09-25T19:01:57.587Z,100696.39
2018-09-25T19:04:30.857Z,100697.06
2018-09-25T19:07:05.462Z,100701.64
2018-09-25T19:09:38.392Z,100697.16
2018-09-25T19:12:14.831Z,100699.07
2018-09-25T19:14:47.813Z,100699.71
2018-09-25T19:17:20.727Z,100683.05
2018-09-25T19:19:53.789Z,100693.21
2018-09-25T19:22:26.911Z,100684.66
2018-09-25T19:24:59.744Z,100683.71
2018-09-25T19:27:32.886Z,100680.08
2018-09-25T19:30:05.887Z,100683.33
2018-09-25T19:32:39.563Z,100680.85
2018-09-25T19:35:12.386Z,100679.86
2018-09-25T19:37:45.324Z,100672.73
2018-09-25T19:40:18.387Z,100669.41
2018-09-25T19:42:54.952Z,100670.98
2018-09-25T19:45:29.145Z,100672.48
2018-09-25T19:48:01.997Z,100672.88
2018-09-25T19:50:35.170Z,100670.65
2018-09-25T19:53:08.358Z,100669.80
2018-09-25T19:56:10.882Z,100666.55
2018-09-25T19:58:45.017Z,100659.45
2018-09-25T20:01:18.860Z,100654.30
2018-09-25T20:03:51.936Z,100651.52
2018-09-25T20:06:24.970Z,100648.06
2018-09-25T20:08:58.429Z,100650.60
2018-09-25T20:11:31.664Z,100647.04
2018-09-25T20:14:04.599Z,100652.22
2018-09-25T20:16:37.817Z,100655.64
2018-09-25T20:19:11.178Z,100654.61
2018-09-25T20:21:44.658Z,100662.36
2018-09-25T20:24:18.019Z,100664.40
2018-09-25T20:26:50.974Z,100663.55
2018-09-25T20:29:26.329Z,100666.73
2018-09-25T20:32:01.062Z,100654.37
2018-09-25T20:34:34.368Z,100659.06
2018-09-25T20:37:07.934Z,100668.51
2018-09-25T20:39:43.162Z,100669.62
2018-09-25T20:42:20.446Z,100678.64
2018-09-25T20:44:53.627Z,100678.37
2018-09-25T20:47:27.396Z,100682.66
2018-09-25T20:50:01.614Z,100687.77
2018-09-25T20:52:36.155Z,100691.41
2018-09-25T20:55:09.448Z,100688.33
2018-09-25T20:57:42.521Z,100694.19
2018-09-25T21:00:21.268Z,100694.19
2018-09-25T21:02:54.773Z,100695.41
2018-09-25T21:05:27.734Z,100704.08
2018-09-25T21:08:01.297Z,100695.83
2018-09-25T21:10:34.304Z,100693.27
2018-09-25T21:13:07.780Z,100690.54
2018-09-25T21:15:41.004Z,100683.38
2018-09-25T21:18:13.965Z,100684.56
2018-09-25T21:20:46.941Z,100686.34
2018-09-25T21:23:19.994Z,100683.22
2018-09-25T21:25:52.934Z,100676.12
2018-09-25T21:28:25.852Z,100672.75
2018-09-25T21:30:59.251Z,100665.13
2018-09-25T21:33:32.306Z,100670.01
2018-09-25T21:36:05.267Z,100662.22
2018-09-25T21:38:38.282Z,100657.22
2018-09-25T21:41:11.764Z,100651.97
2018-09-25T21:43:44.723Z,100653.77
2018-09-25T21:46:17.850Z,100655.50
2018-09-25T21:48:50.850Z,100651.23
2018-09-25T21:51:23.998Z,100643.92
2018-09-25T21:53:57.024Z,100650.28
2018-09-25T21:56:30.555Z,100654.58
2018-09-25T21:59:03.615Z,100659.91
2018-09-25T22:01:36.480Z,100665.05
2018-09-25T22:04:09.553Z,100654.95
2018-09-25T22:06:42.467Z,100650.63
2018-09-25T22:09:15.451Z,100645.75
2018-09-25T22:11:48.475Z,100644.91
2018-09-25T22:14:21.502Z,100648.03
2018-09-25T22:16:54.940Z,100653.31
2018-09-25T22:19:27.964Z,100651.05
2018-09-25T22:22:01.135Z,100654.92
2018-09-25T22:24:34.491Z,100664.98
2018-09-25T22:27:07.451Z,100662.70
2018-09-25T22:29:40.434Z,100664.34
2018-09-25T22:32:23.135Z,100662.20
2018-09-25T22:34:57.163Z,100651.34
2018-09-25T22:37:30.078Z,100656.02
2018-09-25T22:40:03.243Z,100660.89
2018-09-25T22:42:38.217Z,100661.77
2018-09-25T22:45:11.594Z,100641.64
2018-09-25T22:47:52.800Z,100629.66
2018-09-25T22:50:25.753Z,100625.66
2018-09-25T22:53:01.568Z,100624.86
2018-09-25T22:55:34.745Z,100625.23
2018-09-25T22:58:07.802Z,100635.31
2018-09-25T23:00:43.991Z,100635.41
2018-09-25T23:03:25.227Z,100628.31
2018-09-25T23:05:58.568Z,100618.92
2018-09-25T23:08:37.813Z,100614.70
2018-09-25T23:11:11.730Z,100606.06
2018-09-25T23:13:44.551Z,100604.38
2018-09-25T23:16:17.479Z,100603.95
2018-09-25T23:18:51.433Z,100594.81
2018-09-25T23:21:24.574Z,100592.81
2018-09-25T23:23:57.528Z,100589.66
2018-09-25T23:26:30.505Z,100587.39
2018-09-25T23:29:03.530Z,100571.73
2018-09-25T23:31:36.445Z,100567.47
2018-09-25T23:34:09.556Z,100563.16
2018-09-25T23:36:42.413Z,100562.57
2018-09-25T23:39:14.972Z,100558.30
2018-09-25T23:42:20.036Z,100562.84
2018-09-25T23:44:54.627Z,100564.28
2018-09-25T23:47:26.473Z,100558.64
2018-09-25T23:50:00.796Z,100556.74
2018-09-25T23:52:48.669Z,100561.65
2018-09-25T23:55:23.245Z,100565.88
2018-09-25T23:57:58.224Z,100562.17
